createdAt,value
2023-03-31T00:01:00.161Z,99796.35
2023-03-31T00:03:28.859Z,99794.33
2023-03-31T00:06:00.539Z,99792.66
2023-03-31T00:08:30.749Z,99787.87
2023-03-31T00:11:01.563Z,99789.85
2023-03-31T00:13:30.261Z,99791.09
2023-03-31T00:16:06.010Z,99792.89
2023-03-31T00:18:37.077Z,99794.91
2023-03-31T00:21:14.056Z,99791.70
2023-03-31T00:23:43.241Z,99795.96
2023-03-31T00:26:14.184Z,99795.48
2023-03-31T00:28:44.715Z,99796.48
2023-03-31T00:31:15.189Z,99795.67
2023-03-31T00:33:45.776Z,99793.94
2023-03-31T00:36:21.179Z,99794.05
2023-03-31T00:38:56.499Z,99792.65
2023-03-31T00:41:25.611Z,99788.14
2023-03-31T00:44:27.346Z,99789.14
2023-03-31T00:47:02.989Z,99788.70
2023-03-31T00:49:40.922Z,99793.29
2023-03-31T00:52:18.294Z,99797.34
2023-03-31T00:54:50.253Z,99792.27
2023-03-31T00:57:27.027Z,99790.01
2023-03-31T00:59:58.744Z,99790.20
2023-03-31T01:02:27.331Z,99794.54
2023-03-31T01:05:01.593Z,99790.95
2023-03-31T01:07:44.142Z,99786.14
2023-03-31T01:10:11.814Z,99783.82
2023-03-31T01:12:42.629Z,99788.54
2023-03-31T01:15:10.310Z,99786.42
2023-03-31T01:17:40.876Z,99788.67
2023-03-31T01:20:32.871Z,99787.99
2023-03-31T01:23:12.221Z,99791.30
2023-03-31T01:26:17.914Z,99794.98
2023-03-31T01:29:17.097Z,99789.06
2023-03-31T01:32:10.671Z,99792.45
2023-03-31T01:35:09.961Z,99793.90
2023-03-31T01:38:08.458Z,99794.22
2023-03-31T01:41:24.923Z,99792.97
2023-03-31T01:44:18.619Z,99793.73
2023-03-31T01:47:28.759Z,99784.77
2023-03-31T01:53:25.048Z,99784.48
2023-03-31T01:56:26.793Z,99781.28
2023-03-31T01:59:11.588Z,99777.35
2023-03-31T02:01:45.635Z,99774.58
2023-03-31T02:04:19.477Z,99770.00
2023-03-31T02:06:55.762Z,99767.05
2023-03-31T02:09:27.786Z,99763.56
2023-03-31T02:11:55.843Z,99761.92
2023-03-31T02:14:26.744Z,99761.52
2023-03-31T02:17:18.613Z,99754.71
2023-03-31T02:19:48.941Z,99755.23
2023-03-31T02:22:16.901Z,99748.65
2023-03-31T02:24:46.251Z,99744.33
2023-03-31T02:27:28.151Z,99742.47
2023-03-31T02:30:05.112Z,99738.89
2023-03-31T02:32:41.798Z,99737.89
2023-03-31T02:35:12.735Z,99741.05
2023-03-31T02:37:44.511Z,99744.56
2023-03-31T02:40:21.675Z,99745.61
2023-03-31T02:42:51.603Z,99750.14
2023-03-31T02:45:53.813Z,99751.11
2023-03-31T02:48:28.898Z,99747.76
2023-03-31T02:51:10.260Z,99750.23
2023-03-31T02:53:53.289Z,99743.98
2023-03-31T02:56:36.362Z,99744.47
2023-03-31T02:59:32.283Z,99746.16
2023-03-31T03:02:17.678Z,99744.54
2023-03-31T03:04:52.417Z,99740.27
2023-03-31T03:07:24.445Z,99738.73
2023-03-31T03:10:10.764Z,99729.66
2023-03-31T03:12:45.115Z,99722.90
2023-03-31T03:15:18.679Z,99724.94
2023-03-31T03:17:48.348Z,99725.33
2023-03-31T03:20:17.049Z,99727.23
2023-03-31T03:22:47.578Z,99724.92
2023-03-31T03:25:19.808Z,99717.85
2023-03-31T03:27:55.307Z,99715.30
2023-03-31T03:30:24.481Z,99713.11
2023-03-31T03:32:58.531Z,99710.64
2023-03-31T03:35:27.505Z,99710.16
2023-03-31T03:37:58.928Z,99710.11
2023-03-31T03:40:34.198Z,99709.30
2023-03-31T03:43:09.290Z,99705.35
2023-03-31T03:45:37.654Z,99702.44
2023-03-31T03:48:10.784Z,99700.80
2023-03-31T03:50:42.073Z,99696.77
2023-03-31T03:53:13.365Z,99693.96
2023-03-31T03:55:50.665Z,99689.70
2023-03-31T03:58:21.521Z,99691.02
2023-03-31T04:00:54.453Z,99684.14
2023-03-31T04:03:29.053Z,99676.81
2023-03-31T04:06:04.762Z,99677.38
2023-03-31T04:08:39.141Z,99678.56
2023-03-31T04:11:20.092Z,99675.77
2023-03-31T04:13:53.840Z,99673.45
2023-03-31T04:16:39.515Z,99669.52
2023-03-31T04:19:11.570Z,99670.65
2023-03-31T04:24:59.069Z,99666.52
2023-03-31T04:27:46.241Z,99662.02
2023-03-31T04:30:23.455Z,99661.53
2023-03-31T04:33:00.715Z,99662.66
2023-03-31T04:35:55.788Z,99665.14
2023-03-31T04:38:33.011Z,99661.94
2023-03-31T04:41:09.206Z,99657.48
2023-03-31T04:43:44.848Z,99652.10
2023-03-31T04:46:20.577Z,99646.39
2023-03-31T04:48:52.925Z,99648.89
2023-03-31T04:51:25.155Z,99643.70
2023-03-31T04:53:55.458Z,99640.64
2023-03-31T04:56:30.052Z,99634.73
2023-03-31T04:59:04.779Z,99628.41
2023-03-31T05:01:45.892Z,99624.70
2023-03-31T05:04:25.374Z,99623.05
2023-03-31T05:06:57.439Z,99615.32
2023-03-31T05:09:25.328Z,99619.02
2023-03-31T05:11:58.918Z,99613.44
2023-03-31T05:14:27.525Z,99610.47
2023-03-31T05:16:58.554Z,99613.00
2023-03-31T05:19:32.255Z,99607.36
2023-03-31T05:22:05.615Z,99608.58
2023-03-31T05:24:36.804Z,99605.54
2023-03-31T05:28:01.684Z,99608.48
2023-03-31T05:30:39.860Z,99608.25
2023-03-31T05:33:36.953Z,99600.48
2023-03-31T05:36:10.656Z,99596.17
2023-03-31T05:38:48.472Z,99592.42
2023-03-31T05:41:20.002Z,99591.25
2023-03-31T05:43:53.489Z,99587.54
2023-03-31T05:46:44.638Z,99582.36
2023-03-31T05:49:16.440Z,99580.92
2023-03-31T05:51:48.417Z,99579.17
2023-03-31T05:57:14.720Z,99567.91
2023-03-31T05:59:43.074Z,99562.39
2023-03-31T06:02:17.717Z,99558.98
2023-03-31T06:04:50.273Z,99568.17
2023-03-31T06:07:20.184Z,99573.30
2023-03-31T06:10:03.476Z,99570.27
2023-03-31T06:12:33.782Z,99572.50
2023-03-31T06:15:22.962Z,99572.05
2023-03-31T06:17:54.978Z,99573.27
2023-03-31T06:20:30.913Z,99566.89
2023-03-31T06:23:34.234Z,99563.30
2023-03-31T06:26:07.081Z,99560.33
2023-03-31T06:28:36.228Z,99553.50
2023-03-31T06:31:21.827Z,99544.64
2023-03-31T06:33:50.327Z,99541.34
2023-03-31T06:36:41.355Z,99536.38
2023-03-31T06:39:10.472Z,99530.24
2023-03-31T06:41:39.503Z,99524.27
2023-03-31T06:44:09.718Z,99525.31
2023-03-31T06:46:38.133Z,99522.42
2023-03-31T06:49:10.197Z,99521.90
2023-03-31T06:51:47.513Z,99519.27
2023-03-31T06:54:17.323Z,99520.30
2023-03-31T06:56:47.105Z,99516.74
2023-03-31T06:59:20.866Z,99513.46
2023-03-31T07:01:59.057Z,99510.63
2023-03-31T07:04:36.214Z,99509.48
2023-03-31T07:07:15.025Z,99506.97
2023-03-31T07:09:58.355Z,99506.80
2023-03-31T07:12:36.191Z,99500.44
2023-03-31T07:15:09.032Z,99501.93
2023-03-31T07:17:42.257Z,99503.38
2023-03-31T07:20:21.197Z,99496.88
2023-03-31T07:22:52.606Z,99488.29
2023-03-31T07:25:35.483Z,99484.62
2023-03-31T07:28:11.729Z,99476.59
2023-03-31T07:30:46.429Z,99474.46
2023-03-31T07:33:20.659Z,99471.72
2023-03-31T07:36:07.920Z,99472.56
2023-03-31T07:38:51.163Z,99473.88
2023-03-31T07:41:29.055Z,99475.98
2023-03-31T07:44:07.363Z,99470.23
2023-03-31T07:46:48.071Z,99469.58
2023-03-31T07:49:22.086Z,99468.67
2023-03-31T07:52:00.188Z,99464.31
2023-03-31T07:54:31.900Z,99470.91
2023-03-31T07:57:11.938Z,99468.87
2023-03-31T07:59:51.265Z,99464.02
2023-03-31T08:02:37.031Z,99466.92
2023-03-31T08:05:15.135Z,99462.91
2023-03-31T08:08:04.009Z,99460.92
2023-03-31T08:10:42.222Z,99459.82
2023-03-31T08:13:14.766Z,99456.27
2023-03-31T08:15:56.168Z,99457.47
2023-03-31T08:18:34.526Z,99461.66
2023-03-31T08:21:13.575Z,99456.73
2023-03-31T08:23:48.591Z,99456.26
2023-03-31T08:26:31.008Z,99456.84
2023-03-31T08:29:31.589Z,99452.04
2023-03-31T08:32:15.564Z,99449.06
2023-03-31T08:34:50.330Z,99438.92
2023-03-31T08:37:29.188Z,99440.08
2023-03-31T08:46:50.491Z,99424.33
2023-03-31T08:49:19.992Z,99423.85
2023-03-31T08:52:04.684Z,99418.64
2023-03-31T08:54:55.889Z,99410.39
2023-03-31T08:58:36.689Z,99410.35
2023-03-31T09:01:56.403Z,99407.03
2023-03-31T09:04:39.667Z,99413.38
2023-03-31T09:12:03.808Z,99397.10
2023-03-31T09:15:57.445Z,99397.28
2023-03-31T09:19:09.830Z,99391.34
2023-03-31T09:22:04.218Z,99383.11
2023-03-31T09:25:11.789Z,99381.81
2023-03-31T09:28:05.371Z,99377.02
2023-03-31T09:30:48.549Z,99370.83
2023-03-31T09:34:00.783Z,99366.34
2023-03-31T09:36:53.655Z,99360.06
2023-03-31T09:39:24.815Z,99355.07
2023-03-31T09:42:01.228Z,99354.84
2023-03-31T09:44:48.655Z,99349.73
2023-03-31T09:47:55.493Z,99345.54
2023-03-31T09:50:38.072Z,99343.82
2023-03-31T09:53:27.884Z,99342.36
2023-03-31T09:56:13.775Z,99337.86
2023-03-31T09:59:10.268Z,99333.67
2023-03-31T10:01:57.462Z,99325.70
2023-03-31T10:05:33.884Z,99324.50
2023-03-31T10:08:27.098Z,99319.20
2023-03-31T10:11:21.950Z,99315.48
2023-03-31T10:14:04.447Z,99310.29
2023-03-31T10:16:56.548Z,99310.19
2023-03-31T10:19:41.078Z,99308.63
2023-03-31T10:23:05.153Z,99312.54
2023-03-31T10:25:40.665Z,99305.02
2023-03-31T10:28:19.276Z,99301.31
2023-03-31T10:30:49.537Z,99298.09
2023-03-31T10:33:36.213Z,99292.02
2023-03-31T10:36:27.076Z,99288.19
2023-03-31T10:38:57.348Z,99284.60
2023-03-31T10:41:33.442Z,99280.95
2023-03-31T10:44:57.175Z,99276.39
2023-03-31T10:47:29.330Z,99272.36
2023-03-31T10:50:01.396Z,99268.58
2023-03-31T10:53:28.577Z,99262.52
2023-03-31T10:56:06.469Z,99254.16
2023-03-31T10:59:05.773Z,99248.13
2023-03-31T11:02:00.241Z,99239.72
2023-03-31T11:04:42.971Z,99241.58
2023-03-31T11:07:30.653Z,99236.25
2023-03-31T11:10:41.753Z,99232.10
2023-03-31T11:13:38.302Z,99227.67
2023-03-31T11:16:26.322Z,99230.44
2023-03-31T11:19:35.088Z,99223.63
2023-03-31T11:25:09.040Z,99213.91
2023-03-31T11:27:56.335Z,99208.97
2023-03-31T11:30:38.085Z,99205.09
2023-03-31T11:33:29.729Z,99205.95
2023-03-31T11:36:28.986Z,99208.19
2023-03-31T11:39:04.077Z,99199.61
2023-03-31T11:41:51.458Z,99199.38
2023-03-31T11:44:20.576Z,99191.63
2023-03-31T11:47:09.676Z,99191.92
2023-03-31T11:49:59.210Z,99177.36
2023-03-31T11:52:33.368Z,99179.05
2023-03-31T11:55:17.395Z,99177.38
2023-03-31T11:58:02.019Z,99178.08
2023-03-31T12:00:42.634Z,99181.55
2023-03-31T12:03:53.346Z,99174.59
2023-03-31T12:06:23.731Z,99172.65
2023-03-31T12:09:21.738Z,99175.37
2023-03-31T12:12:00.145Z,99170.73
2023-03-31T12:14:36.266Z,99169.91
2023-03-31T12:17:12.816Z,99175.08
2023-03-31T12:19:54.215Z,99170.13
2023-03-31T12:22:34.602Z,99168.23
2023-03-31T12:25:03.171Z,99165.92
2023-03-31T12:27:42.206Z,99161.92
2023-03-31T12:30:15.177Z,99165.40
2023-03-31T12:33:09.374Z,99159.73
2023-03-31T12:36:00.575Z,99156.73
2023-03-31T12:39:02.404Z,99152.84
2023-03-31T12:41:56.771Z,99154.34
2023-03-31T12:44:28.578Z,99151.09
2023-03-31T12:47:19.696Z,99148.59
2023-03-31T12:49:54.645Z,99153.12
2023-03-31T12:52:41.466Z,99149.70
2023-03-31T12:55:40.137Z,99145.91
2023-03-31T12:58:32.370Z,99146.56
2023-03-31T13:01:01.731Z,99140.05
2023-03-31T13:03:34.772Z,99139.12
2023-03-31T13:06:04.184Z,99137.12
2023-03-31T13:08:52.260Z,99134.04
2023-03-31T13:11:37.263Z,99131.50
2023-03-31T13:14:18.200Z,99127.41
2023-03-31T13:16:46.827Z,99117.87
2023-03-31T13:19:35.125Z,99120.27
2023-03-31T13:22:04.853Z,99113.76
2023-03-31T13:24:33.910Z,99112.55
2023-03-31T13:27:29.344Z,99106.38
2023-03-31T13:29:57.636Z,99104.91
2023-03-31T13:32:27.364Z,99103.37
2023-03-31T13:35:03.773Z,99107.17
2023-03-31T13:38:02.114Z,99107.81
2023-03-31T13:40:52.445Z,99105.94
2023-03-31T13:43:29.591Z,99100.14
2023-03-31T13:46:23.718Z,99100.05
2023-03-31T13:48:58.074Z,99093.35
2023-03-31T13:51:30.168Z,99097.89
2023-03-31T13:54:10.701Z,99090.66
2023-03-31T13:56:53.074Z,99087.97
2023-03-31T13:59:45.719Z,99081.67
2023-03-31T14:02:40.308Z,99077.94
2023-03-31T14:05:20.167Z,99080.98
2023-03-31T14:07:51.062Z,99084.70
2023-03-31T14:10:33.887Z,99079.78
2023-03-31T14:13:09.263Z,99077.06
2023-03-31T14:15:42.584Z,99077.64
2023-03-31T14:18:16.941Z,99079.91
2023-03-31T14:20:50.875Z,99070.54
2023-03-31T14:23:40.994Z,99072.04
2023-03-31T14:26:28.733Z,99063.98
2023-03-31T14:29:19.955Z,99079.11
2023-03-31T14:32:04.684Z,99078.84
2023-03-31T14:35:14.066Z,99078.05
2023-03-31T14:37:43.699Z,99081.13
2023-03-31T14:40:16.089Z,99074.20
2023-03-31T14:42:52.720Z,99074.91
2023-03-31T14:45:31.780Z,99071.47
2023-03-31T14:48:11.682Z,99069.42
2023-03-31T14:50:43.306Z,99067.27
2023-03-31T14:53:16.403Z,99068.83
2023-03-31T14:55:58.149Z,99063.70
2023-03-31T14:58:34.858Z,99065.91
2023-03-31T15:01:04.909Z,99064.22
2023-03-31T15:03:37.612Z,99066.02
2023-03-31T15:06:07.360Z,99062.00
2023-03-31T15:08:37.015Z,99064.73
2023-03-31T15:13:46.900Z,99063.99
2023-03-31T15:16:29.169Z,99060.61
2023-03-31T15:19:06.530Z,99063.90
2023-03-31T15:21:37.738Z,99061.95
2023-03-31T15:24:16.824Z,99061.64
2023-03-31T15:31:18.439Z,99057.16
2023-03-31T15:33:49.609Z,99057.89
2023-03-31T15:36:18.233Z,99060.11
2023-03-31T15:38:46.692Z,99056.60
2023-03-31T15:41:17.449Z,99056.23
2023-03-31T15:43:47.228Z,99051.58
2023-03-31T15:46:25.314Z,99048.41
2023-03-31T15:48:55.024Z,99052.27
2023-03-31T15:51:31.285Z,99047.90
2023-03-31T15:54:00.168Z,99047.70
2023-03-31T15:56:36.433Z,99049.45
2023-03-31T15:59:07.464Z,99047.94
2023-03-31T16:01:40.193Z,99051.82
2023-03-31T16:04:13.400Z,99048.86
2023-03-31T16:06:55.302Z,99048.87
2023-03-31T16:09:45.509Z,99053.70
2023-03-31T16:12:33.704Z,99051.52
2023-03-31T16:15:15.942Z,99052.23
2023-03-31T16:17:53.525Z,99054.30
2023-03-31T16:20:30.121Z,99058.40
2023-03-31T16:23:00.301Z,99059.49
2023-03-31T16:25:54.632Z,99052.16
2023-03-31T16:28:33.414Z,99050.85
2023-03-31T16:31:03.124Z,99056.83
2023-03-31T16:33:53.051Z,99052.45
2023-03-31T16:36:21.777Z,99048.59
2023-03-31T16:38:53.433Z,99045.48
2023-03-31T16:41:23.695Z,99046.14
2023-03-31T16:43:54.661Z,99046.17
2023-03-31T16:46:27.820Z,99047.27
2023-03-31T16:48:57.496Z,99049.21
2023-03-31T16:51:28.637Z,99049.16
2023-03-31T16:54:24.075Z,99051.16
2023-03-31T16:57:02.834Z,99060.71
2023-03-31T16:59:33.745Z,99071.14
2023-03-31T17:03:21.385Z,99075.02
2023-03-31T17:13:12.454Z,99068.27
2023-03-31T17:15:46.866Z,99070.50
2023-03-31T17:18:15.848Z,99072.20
2023-03-31T17:20:44.940Z,99075.42
2023-03-31T17:23:17.861Z,99069.81
2023-03-31T17:25:51.134Z,99070.46
2023-03-31T17:28:27.704Z,99057.66
2023-03-31T17:30:57.527Z,99061.64
2023-03-31T17:33:28.350Z,99060.17
2023-03-31T17:36:02.762Z,99068.23
2023-03-31T17:38:34.838Z,99070.73
2023-03-31T17:41:07.215Z,99070.45
2023-03-31T17:43:36.387Z,99063.15
2023-03-31T17:46:11.806Z,99069.52
2023-03-31T17:48:43.473Z,99073.63
2023-03-31T17:51:16.423Z,99081.46
2023-03-31T17:53:49.230Z,99088.58
2023-03-31T17:56:18.039Z,99089.74
2023-03-31T17:58:46.884Z,99086.02
2023-03-31T18:01:19.604Z,99095.50
2023-03-31T18:03:50.294Z,99097.70
2023-03-31T18:06:19.861Z,99107.05
2023-03-31T18:08:52.377Z,99101.36
2023-03-31T18:11:23.976Z,99105.44
2023-03-31T18:14:02.672Z,99108.59
2023-03-31T18:16:31.794Z,99101.98
2023-03-31T18:19:02.241Z,99096.82
2023-03-31T18:21:35.261Z,99091.27
2023-03-31T18:24:15.002Z,99081.09
2023-03-31T18:26:49.406Z,99082.67
2023-03-31T18:29:19.573Z,99077.30
2023-03-31T18:35:45.728Z,99105.21
2023-03-31T18:38:31.584Z,99111.02
2023-03-31T18:41:19.850Z,99110.55
2023-03-31T18:44:17.677Z,99112.85
2023-03-31T18:46:46.627Z,99112.21
2023-03-31T18:49:37.553Z,99107.79
2023-03-31T18:52:12.523Z,99110.10
2023-03-31T18:54:42.165Z,99115.77
2023-03-31T18:57:11.756Z,99116.02
2023-03-31T18:59:41.745Z,99110.46
2023-03-31T19:02:14.307Z,99108.24
2023-03-31T19:04:42.855Z,99112.77
2023-03-31T19:07:14.861Z,99115.38
2023-03-31T19:09:43.491Z,99113.66
2023-03-31T19:12:12.047Z,99120.45
2023-03-31T19:14:41.485Z,99117.88
2023-03-31T19:17:10.149Z,99118.70
2023-03-31T19:19:45.986Z,99110.23
2023-03-31T19:22:14.391Z,99114.95
2023-03-31T19:24:43.073Z,99108.03
2023-03-31T19:27:12.344Z,99111.38
2023-03-31T19:29:44.733Z,99110.86
2023-03-31T19:32:18.025Z,99113.85
2023-03-31T19:34:47.193Z,99113.23
2023-03-31T19:37:18.143Z,99111.25
2023-03-31T19:39:46.977Z,99109.66
2023-03-31T19:42:15.717Z,99107.62
2023-03-31T19:44:45.479Z,99104.97
2023-03-31T19:47:14.068Z,99106.92
2023-03-31T19:49:42.544Z,99102.21
2023-03-31T19:52:11.277Z,99099.25
2023-03-31T19:54:41.337Z,99100.16
2023-03-31T19:57:10.247Z,99103.75
2023-03-31T19:59:42.636Z,99104.54
2023-03-31T20:02:15.134Z,99105.17
2023-03-31T20:04:44.502Z,99109.96
2023-03-31T20:07:13.942Z,99109.13
2023-03-31T20:09:42.520Z,99108.04
2023-03-31T20:12:12.617Z,99111.08
2023-03-31T20:14:41.075Z,99117.09
2023-03-31T20:17:15.920Z,99111.81
2023-03-31T20:19:45.216Z,99112.54
2023-03-31T20:22:14.057Z,99113.95
2023-03-31T20:24:44.731Z,99116.14
2023-03-31T20:27:13.301Z,99118.61
2023-03-31T20:29:49.207Z,99118.23
2023-03-31T20:32:19.292Z,99118.45
2023-03-31T20:34:48.092Z,99112.70
2023-03-31T20:40:12.583Z,99111.04
2023-03-31T20:42:41.946Z,99106.71
2023-03-31T20:45:13.013Z,99105.05
2023-03-31T20:47:43.723Z,99105.11
2023-03-31T20:50:12.548Z,99099.80
2023-03-31T20:52:43.235Z,99101.64
2023-03-31T20:55:11.951Z,99101.10
2023-03-31T20:57:40.611Z,99097.41
2023-03-31T21:00:10.115Z,99095.24
2023-03-31T21:02:43.196Z,99087.02
2023-03-31T21:05:12.120Z,99084.49
2023-03-31T21:07:41.297Z,99083.89
2023-03-31T21:10:12.049Z,99082.25
2023-03-31T21:12:46.356Z,99078.56
2023-03-31T21:15:15.151Z,99076.57
2023-03-31T21:17:45.093Z,99073.61
2023-03-31T21:20:14.174Z,99075.33
2023-03-31T21:22:43.068Z,99069.59
2023-03-31T21:25:12.422Z,99075.58
2023-03-31T21:27:41.239Z,99078.79
2023-03-31T21:30:10.637Z,99080.89
2023-03-31T21:32:39.838Z,99075.54
2023-03-31T21:35:09.110Z,99077.48
2023-03-31T21:37:37.715Z,99073.75
2023-03-31T21:40:07.426Z,99073.11
2023-03-31T21:42:37.681Z,99074.95
2023-03-31T21:45:06.844Z,99080.80
2023-03-31T21:47:36.463Z,99083.08
2023-03-31T21:50:05.123Z,99087.41
2023-03-31T21:52:34.232Z,99089.24
2023-03-31T21:55:02.990Z,99085.58
2023-03-31T21:57:31.992Z,99086.05
2023-03-31T22:00:00.493Z,99085.27
2023-03-31T22:02:29.290Z,99089.45
2023-03-31T22:04:58.290Z,99090.70
2023-03-31T22:07:27.308Z,99092.23
2023-03-31T22:09:56.746Z,99093.77
2023-03-31T22:12:26.355Z,99087.45
2023-03-31T22:14:54.887Z,99087.52
2023-03-31T22:17:26.588Z,99088.02
2023-03-31T22:19:55.751Z,99094.36
2023-03-31T22:22:24.016Z,99091.32
2023-03-31T22:24:52.499Z,99089.60
2023-03-31T22:27:20.941Z,99092.59
2023-03-31T22:29:51.707Z,99087.80
2023-03-31T22:32:20.092Z,99090.79
2023-03-31T22:34:49.120Z,99090.48
2023-03-31T22:37:17.368Z,99089.80
2023-03-31T22:39:45.578Z,99095.02
2023-03-31T22:42:14.799Z,99093.45
2023-03-31T22:44:43.601Z,99090.55
2023-03-31T22:47:12.130Z,99087.11
2023-03-31T22:49:42.390Z,99085.79
2023-03-31T22:52:11.117Z,99081.68
2023-03-31T22:54:41.000Z,99078.66
2023-03-31T22:57:09.675Z,99077.89
2023-03-31T22:59:37.996Z,99071.76
2023-03-31T23:02:06.313Z,99074.30
2023-03-31T23:04:34.726Z,99073.18
2023-03-31T23:07:03.421Z,99070.34
2023-03-31T23:09:32.698Z,99072.20
2023-03-31T23:12:01.217Z,99073.86
2023-03-31T23:14:30.361Z,99071.48
2023-03-31T23:16:58.690Z,99076.78
2023-03-31T23:19:27.033Z,99075.41
2023-03-31T23:21:55.381Z,99074.12
2023-03-31T23:24:25.194Z,99076.36
2023-03-31T23:26:58.947Z,99070.50
2023-03-31T23:29:27.587Z,99070.59
2023-03-31T23:31:55.847Z,99073.33
2023-03-31T23:34:24.692Z,99071.04
2023-03-31T23:36:53.585Z,99071.92
2023-03-31T23:42:40.327Z,99080.88
2023-03-31T23:45:09.582Z,99081.23
2023-03-31T23:47:40.962Z,99085.76
2023-03-31T23:50:09.515Z,99082.11
2023-03-31T23:52:38.123Z,99082.27
2023-03-31T23:55:06.758Z,99081.05
2023-03-31T23:57:35.730Z,99077.59
